»·PEaware :: N210KA KSLC-KASE

N210KA :: KSLC-KASE

FLIGHT INFORMATION

Flight Status: Arrived
Operator: Privately registered:
United States
More flights under this callsign
Pilot: Anonymous 16446 (16446)
Aircraft: BEECH AIRCRAFT SUPER KING AIR COMMUTER
(BE20)
More flights by this aircraft type
Origin: KSLC Salt Lake City Intl
United States
Destination: KASE Aspen-Pitkin Co/Sardy
United States
More flights between these airports :: More routes between these airports
Route: +TCH EKR DBL
File this flight plan on PilotEdge
Remarks:
Altitude:
(Current/Filed)
22,000ft
Speed:
(Current/Filed)
300kts
Departed: 29-Nov-17 09:21 PM
Arrived: 29-Nov-17 10:24 PM
Distance/Time
Traveled:
253nm/1:03
Distance/Time
To Go:
Arrived

Flight Plot

Page will automatically refresh every two minutes.

Flight plan parsing failed; only flown route is shown


Map Options




Map Legend


Flown Route
Filed Route
Departure Airport
Arrival Airport
Navaid (VOR, NDB)
Fix

Horizontal Profiles

Position Reports

Time Latitude Longitude Heading Altitude Ground
Speed
29-Nov-17 21:03 40.775671 -111.959392 357 4200ft 0kts
29-Nov-17 21:04 40.775671 -111.959392 357 4200ft 0kts
29-Nov-17 21:05 40.775671 -111.959392 357 4200ft 0kts
29-Nov-17 21:06 40.775671 -111.959392 357 4200ft 0kts
29-Nov-17 21:07 40.775671 -111.959392 357 4200ft 0kts
29-Nov-17 21:08 40.775671 -111.959392 357 4200ft 0kts
29-Nov-17 21:10 40.775671 -111.959392 357 4200ft 0kts
29-Nov-17 21:11 40.775671 -111.959392 357 4200ft 0kts
29-Nov-17 21:12 40.775671 -111.959392 357 4200ft 0kts
29-Nov-17 21:13 40.775671 -111.959392 357 4200ft 0kts
29-Nov-17 21:14 40.775671 -111.959392 357 4200ft 0kts
29-Nov-17 21:15 40.775671 -111.959392 357 4200ft 0kts
29-Nov-17 21:16 40.775648 -111.958739 358 4200ft 0kts
29-Nov-17 21:17 40.775538 -111.958693 313 4200ft 1kts
29-Nov-17 21:18 40.775057 -111.960710 190 4200ft 6kts
29-Nov-17 21:19 40.773335 -111.960649 181 4200ft 5kts
29-Nov-17 21:20 40.772796 -111.960815 237 4200ft 0kts
29-Nov-17 21:21 40.772796 -111.960815 237 4200ft 0kts
29-Nov-17 21:22 40.772796 -111.960815 237 4200ft 0kts
29-Nov-17 21:23 40.772796 -111.960815 237 4200ft 0kts
29-Nov-17 21:24 40.772796 -111.960815 237 4200ft 0kts
29-Nov-17 21:25 40.772705 -111.962117 332 4200ft 10kts
29-Nov-17 21:26 40.801522 -111.963208 354 5012ft 142kts
29-Nov-17 21:27 40.848646 -111.967742 355 6374ft 184kts
29-Nov-17 21:28 40.902552 -111.973304 355 7675ft 204kts
29-Nov-17 21:29 40.955417 -111.986185 314 9435ft 186kts
29-Nov-17 21:30 40.950376 -112.044663 204 10431ft 197kts
29-Nov-17 21:31 40.916791 -112.001799 96 11532ft 206kts
29-Nov-17 21:32 40.909840 -111.926496 99 12700ft 207kts
29-Nov-17 21:33 40.900863 -111.850680 102 13766ft 209kts
29-Nov-17 21:34 40.894449 -111.772202 104 15269ft 211kts
29-Nov-17 21:35 40.884245 -111.693234 101 16832ft 222kts
29-Nov-17 21:36 40.874081 -111.610751 101 18298ft 236kts
29-Nov-17 21:37 40.862922 -111.522653 101 19524ft 248kts
29-Nov-17 21:38 40.851264 -111.432292 101 20739ft 251kts
29-Nov-17 21:39 40.833589 -111.344074 108 21923ft 250kts
29-Nov-17 21:40 40.813725 -111.249148 107 21976ft 284kts
29-Nov-17 21:41 40.792187 -111.146205 108 21973ft 297kts
29-Nov-17 21:42 40.772363 -111.040226 108 21989ft 302kts
29-Nov-17 21:43 40.749616 -110.933694 108 21973ft 301kts
29-Nov-17 21:44 40.727193 -110.828434 108 21973ft 299kts
29-Nov-17 21:45 40.704677 -110.723207 108 21974ft 299kts
29-Nov-17 21:46 40.682040 -110.617789 109 21975ft 298kts
29-Nov-17 21:47 40.659430 -110.513041 108 22006ft 298kts
29-Nov-17 21:48 40.636654 -110.408017 108 22019ft 298kts
29-Nov-17 21:49 40.613884 -110.303491 109 22001ft 299kts
29-Nov-17 21:50 40.590899 -110.198533 109 21987ft 298kts
29-Nov-17 21:51 40.567898 -110.094000 109 21981ft 298kts
29-Nov-17 21:52 40.544786 -109.989458 109 21982ft 298kts
29-Nov-17 21:53 40.521531 -109.884739 109 21982ft 298kts
29-Nov-17 21:54 40.498220 -109.780304 109 21982ft 298kts
29-Nov-17 21:55 40.474855 -109.676126 109 21982ft 298kts
29-Nov-17 21:56 40.451359 -109.571834 109 21983ft 298kts
29-Nov-17 21:57 40.427735 -109.467444 109 21983ft 298kts
29-Nov-17 21:58 40.403995 -109.363058 109 21984ft 299kts
29-Nov-17 21:59 40.380515 -109.260227 110 21980ft 298kts
29-Nov-17 22:00 40.356609 -109.156113 110 21980ft 298kts
29-Nov-17 22:01 40.332613 -109.052035 110 21980ft 299kts
29-Nov-17 22:02 40.308445 -108.947765 110 21982ft 300kts
29-Nov-17 22:03 40.284047 -108.842870 110 21982ft 302kts
29-Nov-17 22:04 40.259505 -108.737880 110 21982ft 302kts
29-Nov-17 22:05 40.234822 -108.632779 110 21983ft 302kts
29-Nov-17 22:06 40.209941 -108.527311 110 21983ft 303kts
29-Nov-17 22:07 40.185067 -108.422354 110 21984ft 303kts
29-Nov-17 22:08 40.161430 -108.323042 110 21979ft 303kts
29-Nov-17 22:09 40.136368 -108.218331 110 21979ft 302kts
29-Nov-17 22:10 40.110567 -108.110979 110 21248ft 320kts
29-Nov-17 22:11 40.083337 -107.998051 110 20256ft 329kts
29-Nov-17 22:12 40.046281 -107.892645 132 19257ft 319kts
29-Nov-17 22:13 39.991471 -107.802286 132 18409ft 310kts
29-Nov-17 22:14 39.938847 -107.715184 132 17806ft 304kts
29-Nov-17 22:15 39.887089 -107.629685 132 17215ft 301kts
29-Nov-17 22:16 39.835714 -107.545039 132 16640ft 300kts
29-Nov-17 22:17 39.783959 -107.459957 132 16160ft 297kts
29-Nov-17 22:18 39.734276 -107.378530 132 16007ft 289kts
29-Nov-17 22:19 39.685007 -107.298031 132 15629ft 295kts
29-Nov-17 22:20 39.633848 -107.214419 131 15033ft 298kts
29-Nov-17 22:21 39.582192 -107.130478 134 14433ft 297kts
29-Nov-17 22:22 39.531517 -107.046153 132 13702ft 297kts
29-Nov-17 22:23 39.468652 -106.986953 159 13528ft 273kts
29-Nov-17 22:24 39.403429 -106.957098 163 13467ft 227kts
29-Nov-17 22:25 39.349406 -106.930432 161 12332ft 186kts
29-Nov-17 22:26 39.310300 -106.909591 162 10984ft 121kts
29-Nov-17 22:27 39.276138 -106.893960 166 9104ft 138kts
29-Nov-17 22:28 39.241212 -106.877401 163 7984ft 130kts
29-Nov-17 22:29 39.225021 -106.868723 85 7777ft 8kts
29-Nov-17 22:30 39.222497 -106.866324 128 7777ft 8kts
29-Nov-17 22:31 39.222467 -106.866268 125 7777ft 0kts

Navigation Log

Ident Type
Flight plan parsing failed, navigation log unavailable